Time;durP1;ratioP1;P1;durP2;ratioP2;P2;SDS_P1;SDS_P2;PMS_P1;PMS_P2;Temp;Humidity;BMP_temperature;BMP_pressure;BME280_temperature;BME280_humidity;BME280_pressure;Samples;Min_cycle;Max_cycle;Signal;HPM_P1;HPM_P2
2023/08/12 00:02:05;;;;;;;17.15;8.68;;;;;;;;;;5058333;28;20013;-66
2023/08/12 00:04:31;;;;;;;18.42;9.63;;;;;;;;;;5060167;28;20037;-66
2023/08/12 00:06:56;;;;;;;17.80;9.20;;;;;;;;;;5074274;28;20100;-66
2023/08/12 00:09:21;;;;;;;17.52;8.60;;;;;;;;;;5073818;28;20024;-66
2023/08/12 00:11:47;;;;;;;19.35;9.98;;;;;;;;;;5074124;28;20029;-66
2023/08/12 00:14:12;;;;;;;18.08;9.52;;;;;;;;;;5067459;28;20032;-66
2023/08/12 00:16:37;;;;;;;16.30;9.60;;;;;;;;;;5073202;28;20565;-66
2023/08/12 00:19:02;;;;;;;17.95;9.20;;;;;;;;;;5074006;28;20017;-66
2023/08/12 00:21:28;;;;;;;18.38;9.27;;;;;;;;;;5073961;28;20052;-66
2023/08/12 00:23:53;;;;;;;18.88;9.75;;;;;;;;;;5072430;28;20048;-66
2023/08/12 00:26:18;;;;;;;17.73;9.93;;;;;;;;;;5073939;28;20032;-66
2023/08/12 00:28:43;;;;;;;16.83;9.88;;;;;;;;;;5073825;28;20444;-66
2023/08/12 00:31:09;;;;;;;15.15;9.50;;;;;;;;;;5073386;28;20024;-66
2023/08/12 00:33:34;;;;;;;18.35;9.57;;;;;;;;;;5074037;28;20021;-66
2023/08/12 00:35:59;;;;;;;20.00;10.00;;;;;;;;;;5073603;28;20024;-70
2023/08/12 00:38:24;;;;;;;17.48;9.85;;;;;;;;;;5062949;28;20055;-70
2023/08/12 00:40:50;;;;;;;17.63;9.85;;;;;;;;;;5053462;28;20056;-70
2023/08/12 00:43:15;;;;;;;17.02;10.10;;;;;;;;;;5053644;28;20013;-70
2023/08/12 00:45:41;;;;;;;18.88;10.30;;;;;;;;;;5053765;28;20377;-70
2023/08/12 00:48:06;;;;;;;20.13;10.82;;;;;;;;;;5053451;28;20538;-70
2023/08/12 00:50:32;;;;;;;16.55;10.10;;;;;;;;;;5053740;28;20020;-70
2023/08/12 00:52:58;;;;;;;16.85;10.65;;;;;;;;;;5053755;28;20492;-70
2023/08/12 00:55:23;;;;;;;16.50;10.95;;;;;;;;;;5053489;28;20055;-70
2023/08/12 00:57:49;;;;;;;17.45;10.60;;;;;;;;;;5065985;28;20037;-70
2023/08/12 01:03:17;;;;;;;24.65;12.32;;;;;;;;;;5065717;28;20043;-70
2023/08/12 01:05:42;;;;;;;26.58;13.95;;;;;;;;;;5050942;28;20020;-70
2023/08/12 01:08:07;;;;;;;22.17;13.48;;;;;;;;;;5073683;28;20537;-70
2023/08/12 01:10:34;;;;;;;27.38;14.02;;;;;;;;;;5073582;28;20133;-70
2023/08/12 01:13:06;;;;;;;24.88;14.48;;;;;;;;;;5071750;28;20485;-70
2023/08/12 01:15:33;;;;;;;27.10;16.00;;;;;;;;;;5073693;28;20491;-71
2023/08/12 01:18:03;;;;;;;29.52;15.40;;;;;;;;;;5073118;28;20028;-71
2023/08/12 01:20:30;;;;;;;30.95;16.55;;;;;;;;;;5089943;28;20024;-71
2023/08/12 01:23:09;;;;;;;28.92;17.80;;;;;;;;;;5093635;28;20024;-71
2023/08/12 01:25:34;;;;;;;23.35;16.92;;;;;;;;;;5063825;28;20523;-71
2023/08/12 01:28:00;;;;;;;30.88;19.98;;;;;;;;;;5053794;28;20021;-70
2023/08/12 01:30:25;;;;;;;30.20;19.83;;;;;;;;;;5053672;28;20373;-70
2023/08/12 01:32:55;;;;;;;30.45;20.33;;;;;;;;;;5053544;28;20353;-70
2023/08/12 01:35:23;;;;;;;32.65;20.23;;;;;;;;;;5069575;28;20103;-70
2023/08/12 01:37:50;;;;;;;35.13;20.08;;;;;;;;;;5077615;28;20423;-70
2023/08/12 01:40:16;;;;;;;28.95;19.83;;;;;;;;;;5077228;28;20060;-70
2023/08/12 01:42:42;;;;;;;37.83;20.10;;;;;;;;;;5076813;28;20020;-70
2023/08/12 01:45:07;;;;;;;32.05;19.10;;;;;;;;;;5077553;28;20021;-70
2023/08/12 01:47:32;;;;;;;35.90;20.10;;;;;;;;;;5077537;28;20024;-71
2023/08/12 01:49:58;;;;;;;29.65;19.42;;;;;;;;;;5077172;28;20020;-70
2023/08/12 01:52:24;;;;;;;31.33;19.55;;;;;;;;;;5077257;28;20020;-70
2023/08/12 01:54:49;;;;;;;32.65;21.02;;;;;;;;;;5076277;28;20028;-70
2023/08/12 01:57:14;;;;;;;32.97;20.33;;;;;;;;;;5076800;28;20318;-70
2023/08/12 01:59:40;;;;;;;32.40;19.23;;;;;;;;;;5076648;28;20067;-70
2023/08/12 02:02:05;;;;;;;29.92;19.23;;;;;;;;;;5076502;28;20123;-69
2023/08/12 02:04:30;;;;;;;29.38;19.33;;;;;;;;;;5052426;28;20459;-69
2023/08/12 02:06:56;;;;;;;26.75;17.65;;;;;;;;;;5044877;28;20036;-69
2023/08/12 02:09:22;;;;;;;28.42;17.92;;;;;;;;;;5049931;28;20116;-69
2023/08/12 02:11:47;;;;;;;26.88;18.75;;;;;;;;;;5047848;28;20029;-69
2023/08/12 02:14:13;;;;;;;31.58;18.73;;;;;;;;;;5044300;28;20436;-70
2023/08/12 02:16:38;;;;;;;30.35;19.63;;;;;;;;;;5046567;28;20029;-69
2023/08/12 02:19:03;;;;;;;30.80;19.50;;;;;;;;;;5052935;28;20029;-69
2023/08/12 02:21:28;;;;;;;30.55;18.42;;;;;;;;;;5043734;28;20034;-69
2023/08/12 02:23:54;;;;;;;31.50;20.00;;;;;;;;;;5044496;28;20043;-69
2023/08/12 02:26:19;;;;;;;34.10;19.13;;;;;;;;;;5041449;28;20055;-70
2023/08/12 02:28:44;;;;;;;34.10;21.83;;;;;;;;;;5042211;28;20021;-70
2023/08/12 02:31:09;;;;;;;33.42;20.65;;;;;;;;;;5035705;28;20104;-70
2023/08/12 02:33:35;;;;;;;30.63;19.83;;;;;;;;;;5035681;28;20025;-70
2023/08/12 02:36:00;;;;;;;31.65;21.02;;;;;;;;;;5035595;28;20025;-70
2023/08/12 02:38:25;;;;;;;36.38;22.58;;;;;;;;;;5039397;28;20020;-69
2023/08/12 02:40:50;;;;;;;33.65;23.55;;;;;;;;;;5037288;28;20381;-69
2023/08/12 02:43:18;;;;;;;36.28;23.52;;;;;;;;;;5035424;28;20385;-69
2023/08/12 02:45:44;;;;;;;35.35;22.90;;;;;;;;;;5051963;28;20111;-70
2023/08/12 02:48:09;;;;;;;36.83;23.13;;;;;;;;;;5053979;28;20101;-70
2023/08/12 02:50:35;;;;;;;38.67;24.63;;;;;;;;;;5053863;28;20553;-69
2023/08/12 02:53:00;;;;;;;36.33;22.20;;;;;;;;;;5046927;28;20108;-69
2023/08/12 02:55:25;;;;;;;32.85;23.75;;;;;;;;;;5052799;28;20385;-69
2023/08/12 02:57:51;;;;;;;34.00;23.58;;;;;;;;;;5035660;28;20047;-69
2023/08/12 03:00:17;;;;;;;34.38;21.95;;;;;;;;;;5053615;28;20013;-69
2023/08/12 03:02:42;;;;;;;33.47;24.08;;;;;;;;;;5053690;28;20512;-69
2023/08/12 03:05:08;;;;;;;44.20;24.35;;;;;;;;;;5071271;28;20451;-69
2023/08/12 03:07:33;;;;;;;37.47;25.17;;;;;;;;;;5073811;28;20449;-69
2023/08/12 03:09:58;;;;;;;35.83;23.33;;;;;;;;;;5073270;28;20031;-69
2023/08/12 03:12:24;;;;;;;36.63;22.85;;;;;;;;;;5070957;28;20017;-69
2023/08/12 03:14:49;;;;;;;35.60;23.52;;;;;;;;;;5069459;28;20043;-69
2023/08/12 03:17:14;;;;;;;39.72;24.30;;;;;;;;;;5055883;28;20374;-69
2023/08/12 03:19:39;;;;;;;39.40;25.25;;;;;;;;;;5062969;28;20096;-66
2023/08/12 03:22:04;;;;;;;36.10;24.30;;;;;;;;;;5069747;28;20414;-66
2023/08/12 03:24:30;;;;;;;40.45;25.02;;;;;;;;;;5056477;28;20078;-65
2023/08/12 03:26:55;;;;;;;38.05;25.60;;;;;;;;;;5062801;28;20095;-66
2023/08/12 03:29:20;;;;;;;44.13;28.73;;;;;;;;;;5057201;28;20024;-66
2023/08/12 03:31:46;;;;;;;45.47;28.92;;;;;;;;;;5057694;28;20017;-66
2023/08/12 03:34:11;;;;;;;49.55;31.60;;;;;;;;;;5068258;28;20444;-66
2023/08/12 03:36:36;;;;;;;50.65;33.08;;;;;;;;;;5056984;28;20020;-66
2023/08/12 03:39:01;;;;;;;53.53;34.42;;;;;;;;;;5054093;28;20473;-66
2023/08/12 03:41:27;;;;;;;59.67;35.47;;;;;;;;;;5066333;28;20013;-66
2023/08/12 03:43:52;;;;;;;50.38;33.30;;;;;;;;;;5040431;28;20020;-65
2023/08/12 03:46:17;;;;;;;50.08;33.40;;;;;;;;;;5060008;28;20023;-65
2023/08/12 03:48:42;;;;;;;49.35;33.50;;;;;;;;;;5054221;28;20071;-65
2023/08/12 03:51:08;;;;;;;55.13;33.22;;;;;;;;;;5059190;28;20070;-65
2023/08/12 03:53:33;;;;;;;52.85;33.13;;;;;;;;;;5072829;28;20016;-65
2023/08/12 03:55:58;;;;;;;50.22;32.53;;;;;;;;;;5061955;28;20173;-65
2023/08/12 03:58:23;;;;;;;47.45;30.48;;;;;;;;;;5056585;28;20031;-65
2023/08/12 04:00:48;;;;;;;49.70;29.98;;;;;;;;;;5056523;28;20070;-65
2023/08/12 04:03:14;;;;;;;49.70;31.90;;;;;;;;;;5054178;28;20112;-64
2023/08/12 04:05:46;;;;;;;45.67;30.35;;;;;;;;;;5054138;28;20028;-65
2023/08/12 04:08:12;;;;;;;50.67;32.42;;;;;;;;;;5054169;28;20024;-66
2023/08/12 04:10:37;;;;;;;53.70;33.25;;;;;;;;;;5054965;28;20033;-66
2023/08/12 04:13:02;;;;;;;54.78;35.10;;;;;;;;;;5059955;28;20499;-67
2023/08/12 04:15:27;;;;;;;57.72;35.65;;;;;;;;;;5054524;28;20493;-66
2023/08/12 04:17:53;;;;;;;58.80;36.40;;;;;;;;;;5066638;28;20362;-66
2023/08/12 04:20:18;;;;;;;66.57;38.72;;;;;;;;;;5063969;28;20051;-66
2023/08/12 04:22:43;;;;;;;61.70;38.55;;;;;;;;;;5071536;28;20050;-63
2023/08/12 04:25:08;;;;;;;63.17;36.25;;;;;;;;;;5061142;28;20452;-63
2023/08/12 04:27:34;;;;;;;67.65;37.88;;;;;;;;;;5057453;28;20009;-66
2023/08/12 04:29:59;;;;;;;62.80;37.10;;;;;;;;;;5055128;28;20095;-66
2023/08/12 04:32:24;;;;;;;58.47;34.90;;;;;;;;;;5054057;28;20394;-64
2023/08/12 04:34:50;;;;;;;63.53;36.47;;;;;;;;;;5053417;28;20032;-63
2023/08/12 04:37:15;;;;;;;70.40;38.45;;;;;;;;;;5058359;28;20033;-65
2023/08/12 04:39:40;;;;;;;71.88;39.55;;;;;;;;;;5070689;28;20051;-65
2023/08/12 04:42:06;;;;;;;67.78;39.13;;;;;;;;;;5071778;28;20077;-65
2023/08/12 04:44:31;;;;;;;66.97;38.65;;;;;;;;;;5071911;28;20012;-64
2023/08/12 04:46:56;;;;;;;75.60;44.08;;;;;;;;;;5071829;28;20016;-65
2023/08/12 04:49:23;;;;;;;73.55;42.53;;;;;;;;;;5059346;28;20354;-64
2023/08/12 04:51:51;;;;;;;76.40;42.63;;;;;;;;;;5053009;28;20474;-65
2023/08/12 04:54:16;;;;;;;66.72;40.33;;;;;;;;;;5052580;28;20115;-64
2023/08/12 04:56:41;;;;;;;74.40;40.45;;;;;;;;;;5052656;28;20100;-64
2023/08/12 04:59:08;;;;;;;86.13;44.83;;;;;;;;;;5052732;28;20033;-64
2023/08/12 05:01:33;;;;;;;80.15;42.58;;;;;;;;;;5052578;28;20013;-64
2023/08/12 05:03:58;;;;;;;66.60;41.58;;;;;;;;;;5052281;28;20045;-64
2023/08/12 05:06:24;;;;;;;65.82;39.20;;;;;;;;;;5052492;28;20021;-64
2023/08/12 05:08:49;;;;;;;74.13;40.78;;;;;;;;;;5053213;28;20033;-64
2023/08/12 05:11:14;;;;;;;77.57;41.13;;;;;;;;;;5052821;28;20041;-65
2023/08/12 05:13:41;;;;;;;62.30;38.03;;;;;;;;;;5052838;28;20404;-65
2023/08/12 05:16:06;;;;;;;66.53;38.50;;;;;;;;;;5052129;28;20099;-66
2023/08/12 05:18:32;;;;;;;64.13;36.92;;;;;;;;;;5061561;28;20411;-66
2023/08/12 05:20:58;;;;;;;61.72;35.90;;;;;;;;;;5063695;28;20428;-65
2023/08/12 05:23:24;;;;;;;65.05;35.85;;;;;;;;;;5045890;28;20017;-65
2023/08/12 05:25:49;;;;;;;68.70;37.13;;;;;;;;;;5062943;28;20027;-65
2023/08/12 05:28:14;;;;;;;59.92;33.78;;;;;;;;;;5057163;28;20028;-65
2023/08/12 05:30:39;;;;;;;66.70;36.15;;;;;;;;;;5054853;28;20687;-65
2023/08/12 05:33:05;;;;;;;64.60;35.53;;;;;;;;;;5060938;28;20423;-65
2023/08/12 05:35:36;;;;;;;67.45;36.25;;;;;;;;;;5058400;28;20445;-65
2023/08/12 05:38:02;;;;;;;65.00;35.38;;;;;;;;;;5055321;28;20020;-65
2023/08/12 05:40:27;;;;;;;61.40;35.10;;;;;;;;;;5052335;28;20044;-66
2023/08/12 05:42:52;;;;;;;61.35;35.38;;;;;;;;;;5067760;28;20026;-64
2023/08/12 05:45:17;;;;;;;61.25;32.85;;;;;;;;;;5059134;28;20017;-65
2023/08/12 05:47:43;;;;;;;59.08;33.08;;;;;;;;;;5055107;28;20024;-64
2023/08/12 05:50:08;;;;;;;52.03;32.05;;;;;;;;;;5058708;28;20055;-65
2023/08/12 05:52:33;;;;;;;55.33;32.97;;;;;;;;;;5069278;28;20024;-65
2023/08/12 05:54:58;;;;;;;49.08;30.13;;;;;;;;;;5061670;28;20031;-64
2023/08/12 05:57:24;;;;;;;42.60;27.58;;;;;;;;;;5062672;28;20632;-65
2023/08/12 05:59:49;;;;;;;46.97;28.55;;;;;;;;;;5062263;28;20479;-65
2023/08/12 06:02:14;;;;;;;41.65;27.05;;;;;;;;;;5058504;28;20020;-65
2023/08/12 06:04:40;;;;;;;40.42;25.23;;;;;;;;;;5057975;28;20045;-65
2023/08/12 06:07:05;;;;;;;35.17;24.05;;;;;;;;;;5059558;28;20063;-65
2023/08/12 06:09:30;;;;;;;34.35;22.40;;;;;;;;;;5056320;28;20039;-66
2023/08/12 06:11:55;;;;;;;31.15;20.58;;;;;;;;;;5061488;28;20067;-64
2023/08/12 06:14:20;;;;;;;29.05;18.90;;;;;;;;;;5059910;28;20032;-65
2023/08/12 06:16:46;;;;;;;25.65;17.98;;;;;;;;;;5050958;28;20059;-64
2023/08/12 06:19:11;;;;;;;28.52;18.33;;;;;;;;;;5050737;28;20079;-65
2023/08/12 06:21:36;;;;;;;25.20;17.65;;;;;;;;;;5063709;28;20070;-64
2023/08/12 06:24:01;;;;;;;28.13;17.67;;;;;;;;;;5064466;28;20078;-67
2023/08/12 06:26:27;;;;;;;25.90;17.75;;;;;;;;;;5072605;28;20081;-64
2023/08/12 06:28:52;;;;;;;28.45;18.25;;;;;;;;;;5062434;28;20029;-64
2023/08/12 06:31:17;;;;;;;28.75;19.23;;;;;;;;;;5059230;28;20019;-65
2023/08/12 06:33:43;;;;;;;29.65;19.65;;;;;;;;;;5065001;28;20024;-64
2023/08/12 06:36:08;;;;;;;30.55;19.75;;;;;;;;;;5063113;28;20035;-65
2023/08/12 06:38:33;;;;;;;30.58;19.48;;;;;;;;;;5067778;28;20372;-65
2023/08/12 06:40:58;;;;;;;30.67;20.17;;;;;;;;;;5060708;28;20366;-65
2023/08/12 06:43:23;;;;;;;30.17;20.05;;;;;;;;;;5055639;28;20417;-64
2023/08/12 06:45:49;;;;;;;33.47;20.25;;;;;;;;;;5071721;28;20430;-65
2023/08/12 06:48:14;;;;;;;30.27;19.67;;;;;;;;;;5055396;28;20396;-65
2023/08/12 06:50:39;;;;;;;29.63;20.77;;;;;;;;;;5055667;28;20346;-68
2023/08/12 06:53:04;;;;;;;29.77;20.40;;;;;;;;;;5062422;28;20380;-68
2023/08/12 06:55:29;;;;;;;32.53;20.30;;;;;;;;;;5069858;28;20036;-68
2023/08/12 06:57:55;;;;;;;32.50;20.48;;;;;;;;;;5048434;28;20017;-68
2023/08/12 07:00:20;;;;;;;30.05;19.27;;;;;;;;;;5067749;28;20035;-68
2023/08/12 07:02:45;;;;;;;28.20;18.55;;;;;;;;;;5083798;28;20017;-68
2023/08/12 07:05:11;;;;;;;28.17;17.15;;;;;;;;;;5084062;28;20433;-68
2023/08/12 07:07:36;;;;;;;27.42;18.55;;;;;;;;;;5087194;28;20017;-68
2023/08/12 07:10:01;;;;;;;26.67;18.08;;;;;;;;;;5086232;28;20024;-68
2023/08/12 07:12:27;;;;;;;24.70;16.98;;;;;;;;;;5081681;28;20012;-68
2023/08/12 07:14:52;;;;;;;22.05;16.00;;;;;;;;;;5067151;28;20118;-69
2023/08/12 07:17:17;;;;;;;22.45;14.40;;;;;;;;;;5060639;28;20021;-68
2023/08/12 07:19:42;;;;;;;23.00;16.02;;;;;;;;;;5058986;28;20021;-68
2023/08/12 07:22:08;;;;;;;21.80;14.77;;;;;;;;;;5064930;28;20012;-68
2023/08/12 07:24:33;;;;;;;24.60;15.85;;;;;;;;;;5059049;28;20067;-68
2023/08/12 07:26:58;;;;;;;20.83;14.60;;;;;;;;;;5063792;28;20269;-68
2023/08/12 07:29:23;;;;;;;20.73;13.75;;;;;;;;;;5073146;28;20060;-67
2023/08/12 07:31:49;;;;;;;22.48;13.73;;;;;;;;;;5072816;28;20384;-67
2023/08/12 07:34:14;;;;;;;18.42;12.40;;;;;;;;;;5066970;28;20024;-67
2023/08/12 07:36:40;;;;;;;17.17;12.48;;;;;;;;;;5064764;28;20036;-68
2023/08/12 07:39:06;;;;;;;19.15;12.90;;;;;;;;;;5058648;28;20029;-70
2023/08/12 07:41:31;;;;;;;18.83;12.15;;;;;;;;;;5054062;28;20095;-70
2023/08/12 07:43:56;;;;;;;19.27;13.45;;;;;;;;;;5059960;28;20071;-71
2023/08/12 07:46:22;;;;;;;19.77;12.90;;;;;;;;;;5055653;28;20401;-70
2023/08/12 07:48:47;;;;;;;16.63;12.77;;;;;;;;;;5058885;28;20421;-70
2023/08/12 07:51:12;;;;;;;21.08;13.35;;;;;;;;;;5053793;28;20024;-69
2023/08/12 07:53:37;;;;;;;20.45;12.55;;;;;;;;;;5070651;28;20092;-70
2023/08/12 07:56:03;;;;;;;17.73;11.40;;;;;;;;;;5056259;28;20017;-70
2023/08/12 07:58:28;;;;;;;15.50;10.95;;;;;;;;;;5065339;28;20080;-70
2023/08/12 08:00:53;;;;;;;19.38;11.30;;;;;;;;;;5075152;28;20047;-68
2023/08/12 08:03:19;;;;;;;15.20;11.00;;;;;;;;;;5065641;28;20040;-70
2023/08/12 08:05:45;;;;;;;16.00;11.30;;;;;;;;;;5073226;28;20044;-70
2023/08/12 08:08:10;;;;;;;17.42;10.68;;;;;;;;;;5052960;28;20013;-70
2023/08/12 08:10:36;;;;;;;16.42;10.80;;;;;;;;;;5060956;28;20469;-70
2023/08/12 08:13:01;;;;;;;13.57;9.85;;;;;;;;;;5057491;28;20024;-71
2023/08/12 08:15:26;;;;;;;16.55;10.27;;;;;;;;;;5058061;28;20048;-70
2023/08/12 08:17:51;;;;;;;16.58;10.77;;;;;;;;;;5054413;28;20025;-70
2023/08/12 08:20:16;;;;;;;15.60;10.07;;;;;;;;;;5054093;28;20013;-70
2023/08/12 08:22:42;;;;;;;13.43;10.23;;;;;;;;;;5055412;28;20075;-71
2023/08/12 08:25:07;;;;;;;16.52;10.25;;;;;;;;;;5052320;28;20051;-72
2023/08/12 08:27:33;;;;;;;16.38;10.70;;;;;;;;;;5063986;28;20040;-72
2023/08/12 08:29:58;;;;;;;14.20;10.48;;;;;;;;;;5054510;28;20031;-72
2023/08/12 08:32:23;;;;;;;14.32;11.10;;;;;;;;;;5055398;28;20017;-69
2023/08/12 08:34:48;;;;;;;18.40;11.75;;;;;;;;;;5056911;28;20048;-69
2023/08/12 08:37:14;;;;;;;21.88;12.40;;;;;;;;;;5067763;28;20044;-71
2023/08/12 08:39:39;;;;;;;21.38;14.73;;;;;;;;;;5057722;28;20033;-72
2023/08/12 08:42:09;;;;;;;22.08;14.98;;;;;;;;;;5054304;28;20021;-74
2023/08/12 08:44:36;;;;;;;26.35;16.98;;;;;;;;;;5052751;28;20021;-71
2023/08/12 08:47:03;;;;;;;25.40;16.98;;;;;;;;;;5053524;28;20453;-71
2023/08/12 08:49:30;;;;;;;26.15;17.40;;;;;;;;;;5059483;28;20029;-72
2023/08/12 08:51:56;;;;;;;30.60;20.35;;;;;;;;;;5063949;28;20025;-72
2023/08/12 08:54:21;;;;;;;31.58;20.98;;;;;;;;;;5062255;28;20017;-72
2023/08/12 08:56:48;;;;;;;38.85;22.75;;;;;;;;;;5069147;28;20020;-72
2023/08/12 08:59:13;;;;;;;37.75;23.40;;;;;;;;;;5060850;28;20601;-72
2023/08/12 09:01:39;;;;;;;34.65;22.75;;;;;;;;;;5059830;28;20020;-72
2023/08/12 09:04:05;;;;;;;37.72;23.55;;;;;;;;;;5057887;28;20120;-72
2023/08/12 09:06:31;;;;;;;36.13;23.27;;;;;;;;;;5056646;28;20096;-71
2023/08/12 09:08:57;;;;;;;37.45;23.42;;;;;;;;;;5061367;28;20024;-71
2023/08/12 09:11:22;;;;;;;37.63;23.98;;;;;;;;;;5059630;28;20087;-71
2023/08/12 09:13:48;;;;;;;40.30;24.60;;;;;;;;;;5062638;28;20094;-71
2023/08/12 09:16:13;;;;;;;38.53;25.40;;;;;;;;;;5061605;28;20481;-71
2023/08/12 09:18:40;;;;;;;39.63;24.35;;;;;;;;;;5059310;28;20111;-71
2023/08/12 09:21:05;;;;;;;41.15;25.13;;;;;;;;;;5060627;28;20377;-71
2023/08/12 09:23:37;;;;;;;42.40;25.13;;;;;;;;;;5057553;28;20024;-71
2023/08/12 09:26:10;;;;;;;41.45;25.52;;;;;;;;;;5056626;28;20013;-70
2023/08/12 09:28:36;;;;;;;35.00;23.05;;;;;;;;;;5059761;28;20016;-70
2023/08/12 09:31:01;;;;;;;35.28;23.77;;;;;;;;;;5060865;28;20381;-70
2023/08/12 09:33:26;;;;;;;40.22;24.10;;;;;;;;;;5056852;28;20405;-70
2023/08/12 09:35:53;;;;;;;39.78;24.63;;;;;;;;;;5057000;28;20082;-70
2023/08/12 09:38:18;;;;;;;39.10;25.45;;;;;;;;;;5055320;28;20131;-70
2023/08/12 09:40:44;;;;;;;39.40;25.92;;;;;;;;;;5040768;28;20421;-70
2023/08/12 09:43:11;;;;;;;42.00;26.42;;;;;;;;;;5052487;28;20074;-71
2023/08/12 09:45:36;;;;;;;41.22;25.77;;;;;;;;;;5055951;28;20465;-70
2023/08/12 09:48:02;;;;;;;45.50;26.60;;;;;;;;;;5054572;28;20063;-71
2023/08/12 09:50:27;;;;;;;39.28;26.02;;;;;;;;;;5056725;28;20451;-70
2023/08/12 09:53:03;;;;;;;43.33;26.05;;;;;;;;;;5058011;28;20037;-70
2023/08/12 09:55:29;;;;;;;37.17;24.50;;;;;;;;;;5097461;28;20008;-70
2023/08/12 09:57:55;;;;;;;40.38;25.25;;;;;;;;;;5094224;28;20004;-69
2023/08/12 10:00:21;;;;;;;36.80;24.20;;;;;;;;;;5100958;28;20036;-69
2023/08/12 10:02:47;;;;;;;41.88;24.98;;;;;;;;;;5100234;28;20012;-69
2023/08/12 10:05:15;;;;;;;41.03;27.13;;;;;;;;;;5099999;28;20076;-69
2023/08/12 10:07:41;;;;;;;44.72;27.42;;;;;;;;;;5088462;28;20005;-69
2023/08/12 10:10:07;;;;;;;39.85;26.52;;;;;;;;;;5088792;28;20029;-69
2023/08/12 10:12:33;;;;;;;43.17;28.17;;;;;;;;;;5083117;28;20031;-69
2023/08/12 10:14:59;;;;;;;50.83;29.92;;;;;;;;;;5083901;28;20069;-69
2023/08/12 10:17:25;;;;;;;40.53;25.15;;;;;;;;;;5067357;28;20017;-69
2023/08/12 10:19:54;;;;;;;45.95;28.10;;;;;;;;;;5078718;28;20047;-70
2023/08/12 10:22:19;;;;;;;49.60;28.85;;;;;;;;;;5079895;28;20028;-70
2023/08/12 10:24:45;;;;;;;40.70;25.27;;;;;;;;;;5054864;28;20039;-69
2023/08/12 10:27:11;;;;;;;30.25;19.60;;;;;;;;;;5054433;28;20020;-68
2023/08/12 10:29:36;;;;;;;32.30;21.60;;;;;;;;;;5068745;28;20032;-69
2023/08/12 10:32:01;;;;;;;42.65;26.88;;;;;;;;;;5072788;28;20027;-69
2023/08/12 10:34:27;;;;;;;30.98;21.50;;;;;;;;;;5071670;28;20031;-69
2023/08/12 10:37:02;;;;;;;26.52;19.77;;;;;;;;;;5055719;28;20113;-69
2023/08/12 10:39:28;;;;;;;24.63;17.73;;;;;;;;;;5057906;28;20565;-68
2023/08/12 10:41:57;;;;;;;20.50;15.63;;;;;;;;;;5062243;28;20025;-68
2023/08/12 10:44:25;;;;;;;17.77;13.43;;;;;;;;;;5061755;28;20021;-67
2023/08/12 10:46:51;;;;;;;18.42;13.63;;;;;;;;;;5069386;28;20009;-68
2023/08/12 10:49:18;;;;;;;18.42;12.30;;;;;;;;;;5053610;28;20035;-66
2023/08/12 10:51:43;;;;;;;15.98;13.32;;;;;;;;;;5055792;28;20048;-67
2023/08/12 10:54:11;;;;;;;18.58;13.63;;;;;;;;;;5064068;28;20472;-68
2023/08/12 10:56:55;;;;;;;18.08;12.45;;;;;;;;;;5071762;28;20191;-68
2023/08/12 10:59:39;;;;;;;13.25;9.73;;;;;;;;;;5070910;28;20033;-68
2023/08/12 11:02:05;;;;;;;17.77;12.90;;;;;;;;;;5058323;28;20107;-68
2023/08/12 11:04:36;;;;;;;14.90;11.13;;;;;;;;;;5044634;28;20123;-68
2023/08/12 11:07:13;;;;;;;13.20;10.45;;;;;;;;;;5062947;28;20529;-68
2023/08/12 11:09:39;;;;;;;13.63;10.25;;;;;;;;;;5067310;28;20480;-68
2023/08/12 11:12:05;;;;;;;10.95;8.57;;;;;;;;;;5065200;28;20026;-68
2023/08/12 11:14:30;;;;;;;12.75;8.52;;;;;;;;;;5065360;28;20013;-69
2023/08/12 11:16:55;;;;;;;10.60;7.60;;;;;;;;;;5053489;28;20052;-69
2023/08/12 11:19:21;;;;;;;10.13;7.18;;;;;;;;;;5062234;28;20056;-68
2023/08/12 11:21:47;;;;;;;9.43;6.38;;;;;;;;;;5064791;28;20067;-69
2023/08/12 11:24:12;;;;;;;10.77;6.40;;;;;;;;;;5067098;28;20024;-69
2023/08/12 11:26:38;;;;;;;7.97;5.50;;;;;;;;;;5064713;28;20104;-69
2023/08/12 11:29:08;;;;;;;8.10;5.40;;;;;;;;;;5067922;28;20028;-69
2023/08/12 11:31:34;;;;;;;6.00;4.53;;;;;;;;;;5061299;28;20025;-69
2023/08/12 11:33:59;;;;;;;11.90;4.95;;;;;;;;;;5067695;28;20056;-69
2023/08/12 11:36:25;;;;;;;7.63;4.80;;;;;;;;;;5066458;28;20021;-69
2023/08/12 11:38:50;;;;;;;6.55;4.75;;;;;;;;;;5065299;28;20016;-69
2023/08/12 11:41:17;;;;;;;6.32;4.50;;;;;;;;;;5065948;28;20381;-69
2023/08/12 11:43:42;;;;;;;6.93;4.97;;;;;;;;;;5063980;28;20099;-69
2023/08/12 11:46:08;;;;;;;6.28;4.97;;;;;;;;;;5059029;28;20548;-69
2023/08/12 11:48:33;;;;;;;7.43;5.40;;;;;;;;;;5065042;28;20020;-69
2023/08/12 11:50:58;;;;;;;7.57;5.50;;;;;;;;;;5063656;28;20032;-69
2023/08/12 11:53:24;;;;;;;7.65;6.03;;;;;;;;;;5057769;28;20100;-69
2023/08/12 11:55:49;;;;;;;7.80;6.10;;;;;;;;;;5059374;28;20151;-69
2023/08/12 11:58:18;;;;;;;9.50;7.32;;;;;;;;;;5061227;28;20028;-69
2023/08/12 12:00:44;;;;;;;9.93;5.90;;;;;;;;;;5060091;28;20028;-69
2023/08/12 12:03:09;;;;;;;7.45;4.68;;;;;;;;;;5066928;28;20384;-69
2023/08/12 12:05:34;;;;;;;6.05;4.38;;;;;;;;;;5062185;28;20073;-69
2023/08/12 12:08:00;;;;;;;6.50;3.83;;;;;;;;;;5064198;28;20083;-69
2023/08/12 12:10:32;;;;;;;4.88;2.90;;;;;;;;;;5065389;28;20103;-69
2023/08/12 12:12:58;;;;;;;4.35;2.30;;;;;;;;;;5060534;28;20547;-69
2023/08/12 12:15:23;;;;;;;4.35;2.10;;;;;;;;;;5064484;28;20481;-70
2023/08/12 12:17:49;;;;;;;4.07;2.00;;;;;;;;;;5062683;28;20063;-70
2023/08/12 12:20:14;;;;;;;4.55;2.28;;;;;;;;;;5062262;28;20044;-70
2023/08/12 12:22:43;;;;;;;4.60;2.55;;;;;;;;;;5060237;28;20024;-70
2023/08/12 12:25:09;;;;;;;4.32;2.53;;;;;;;;;;5065686;28;20724;-69
2023/08/12 12:27:34;;;;;;;4.95;2.90;;;;;;;;;;5063195;28;20028;-69
2023/08/12 12:30:00;;;;;;;4.97;3.42;;;;;;;;;;5063732;28;20021;-70
2023/08/12 12:32:25;;;;;;;5.88;3.97;;;;;;;;;;5063319;28;20063;-69
2023/08/12 12:34:52;;;;;;;6.68;5.10;;;;;;;;;;5065535;28;20036;-70
2023/08/12 12:37:17;;;;;;;6.63;5.20;;;;;;;;;;5069047;28;20103;-69
2023/08/12 12:39:42;;;;;;;8.18;5.03;;;;;;;;;;5060601;28;20524;-67
2023/08/12 12:42:08;;;;;;;7.30;5.50;;;;;;;;;;5058500;28;20021;-70
2023/08/12 12:44:33;;;;;;;7.10;5.90;;;;;;;;;;5059347;28;20468;-70
2023/08/12 12:46:59;;;;;;;7.70;6.28;;;;;;;;;;5061710;28;20036;-70
2023/08/12 12:49:24;;;;;;;8.77;6.70;;;;;;;;;;5057947;28;20082;-68
2023/08/12 12:51:49;;;;;;;8.13;6.70;;;;;;;;;;5057295;28;20527;-70
2023/08/12 12:54:14;;;;;;;6.70;5.15;;;;;;;;;;5059198;28;20074;-68
2023/08/12 12:56:40;;;;;;;8.05;6.65;;;;;;;;;;5059355;28;20044;-68
2023/08/12 12:59:05;;;;;;;8.20;6.53;;;;;;;;;;5060684;28;20024;-69
2023/08/12 13:01:30;;;;;;;8.68;7.05;;;;;;;;;;5059679;28;20024;-69
2023/08/12 13:03:55;;;;;;;8.35;6.47;;;;;;;;;;5052304;28;20477;-70
2023/08/12 13:06:21;;;;;;;9.27;6.95;;;;;;;;;;5047115;28;20021;-70
2023/08/12 13:08:46;;;;;;;7.40;5.93;;;;;;;;;;5064031;28;20029;-70
2023/08/12 13:11:11;;;;;;;7.45;5.10;;;;;;;;;;5066736;28;20012;-70
2023/08/12 13:13:36;;;;;;;6.53;4.90;;;;;;;;;;5063616;28;20024;-69
2023/08/12 13:16:02;;;;;;;5.47;4.22;;;;;;;;;;5066727;28;20040;-68
2023/08/12 13:18:27;;;;;;;6.18;4.47;;;;;;;;;;5063737;28;20051;-68
2023/08/12 13:20:52;;;;;;;5.85;4.60;;;;;;;;;;5058341;28;20029;-70
2023/08/12 13:23:18;;;;;;;5.10;4.20;;;;;;;;;;5063153;28;20020;-70
2023/08/12 13:25:43;;;;;;;7.28;4.35;;;;;;;;;;5065879;28;20024;-69
2023/08/12 13:28:08;;;;;;;6.30;3.95;;;;;;;;;;5070880;28;20098;-69
2023/08/12 13:30:33;;;;;;;5.03;3.70;;;;;;;;;;5070816;28;20025;-69
2023/08/12 13:32:59;;;;;;;4.97;3.42;;;;;;;;;;5071193;28;20100;-69
2023/08/12 13:35:24;;;;;;;5.53;3.17;;;;;;;;;;5071061;28;20040;-68
2023/08/12 13:37:50;;;;;;;4.40;2.78;;;;;;;;;;5071232;28;20055;-68
2023/08/12 13:40:16;;;;;;;3.13;1.75;;;;;;;;;;5061356;28;20070;-69
2023/08/12 13:42:41;;;;;;;3.10;1.25;;;;;;;;;;5053363;28;20025;-68
2023/08/12 13:45:07;;;;;;;2.03;0.85;;;;;;;;;;5059092;28;20407;-68
2023/08/12 13:47:33;;;;;;;1.85;0.65;;;;;;;;;;5063126;28;20020;-68
2023/08/12 13:49:59;;;;;;;3.75;0.80;;;;;;;;;;5062003;28;20043;-70
2023/08/12 13:52:24;;;;;;;1.40;0.70;;;;;;;;;;5066088;28;20481;-71
2023/08/12 13:54:49;;;;;;;0.55;0.50;;;;;;;;;;5066216;28;20097;-71
2023/08/12 13:57:14;;;;;;;1.23;0.50;;;;;;;;;;5064064;28;20363;-69
2023/08/12 13:59:43;;;;;;;1.63;0.50;;;;;;;;;;5055033;28;20434;-70
2023/08/12 14:02:08;;;;;;;0.90;0.38;;;;;;;;;;5052161;28;20021;-70
2023/08/12 14:04:34;;;;;;;0.80;0.40;;;;;;;;;;5053491;28;20040;-70
2023/08/12 14:06:59;;;;;;;3.22;0.77;;;;;;;;;;5062929;28;20100;-71
2023/08/12 14:09:25;;;;;;;0.75;0.50;;;;;;;;;;5067493;28;20496;-71
2023/08/12 14:11:50;;;;;;;0.98;0.60;;;;;;;;;;5057981;28;20099;-69
2023/08/12 14:14:15;;;;;;;1.20;0.50;;;;;;;;;;5070106;28;20158;-70
2023/08/12 14:16:41;;;;;;;2.63;0.60;;;;;;;;;;5071122;28;20452;-70
2023/08/12 14:19:06;;;;;;;0.40;0.40;;;;;;;;;;5063029;28;20494;-70